• Join FlightAware (Why Join?)
  • Login
  • US Flag 
05:03PM EST


 

Airport Tracker/Info


-or-


 

Live Flight TrackerFlight Track Log ✈ DAL277 ✈ 09/Jul/2012 ✈ PHNL - RJBB / KIX

Flight Track Log - Related Links

Times and Time Zones

All times are in EDT time to prevent confusion due to time zone crossing. See the DAL277 flight status page for this flight to view local times or setup timezone preferences in your user account.

Time Position Orientation Groundspeed Altitude Reporting Facility
EDT Latitude Longitude Course Direction KTS MPH feet Rate Location/Type
07:13PM 21.3000 -157.9000 163° South 150 173 1,000  Level Honolulu Center
07:14PM 21.2500 -157.8833 193° South 230 265 2,200 1,680 Climbing Honolulu Center
07:15PM 21.1833 -157.9000 270° West 300 345 4,400 2,580 Climbing Honolulu Center
07:16PM 21.1833 -157.9833 260° West 310 357 7,500 2,940 Climbing Honolulu Center
07:17PM 21.1667 -158.0833 270° West 310 357 10,400 2,220 Climbing Honolulu Center
07:18PM 21.1667 -158.1833 270° West 360 414 12,000 1,980 Climbing Honolulu Center
07:19PM 21.1667 -158.3000 270° West 400 460 14,400 2,700 Climbing Honolulu Center
07:20PM 21.1667 -158.4167 270° West 410 472 17,500 2,880 Climbing Honolulu Center
07:21PM 21.1667 -158.5500 287° West 420 483 20,200 2,520 Climbing Honolulu Center
07:22PM 21.2000 -158.6667 295° West 430 495 22,600 2,280 Climbing Honolulu Center
07:23PM 21.2500 -158.7833 302° West 440 506 24,800 2,160 Climbing Honolulu Center
07:24PM 21.3167 -158.9000 295° West 450 518 27,000 1,920 Climbing Honolulu Center
07:25PM 21.3667 -159.0167 296° West 460 529 28,700 1,560 Climbing Honolulu Center
07:26PM 21.4333 -159.1667 292° West 470 541 30,200 1,680 Climbing Honolulu Center
07:27PM 21.4833 -159.3000 298° West 480 552 32,200 1,920 Climbing Honolulu Center
07:28PM 21.5500 -159.4333 295° West 470 541 34,100 1,680 Climbing Honolulu Center
07:29PM 21.6000 -159.5500 295° West 470 541 35,700 900 Climbing Honolulu Center
07:30PM 21.6500 -159.6667 298° West 460 529 36,000 120 Climbing Honolulu Center
07:31PM 21.7167 -159.8000 292° West 460 529 36,000  Level Honolulu Center
07:32PM 21.7667 -159.9333 298° West 460 529 36,000  Level Honolulu Center
07:33PM 21.8167 -160.0333 302° West 450 518 36,000  Level Honolulu Center
07:34PM 21.8833 -160.1500 292° West 460 529 36,000  Level Honolulu Center
07:35PM 21.9333 -160.2833 295° West 460 529 36,000  Level Honolulu Center
07:36PM 21.9833 -160.4000 292° West 460 529 36,000  Level Honolulu Center
07:37PM 22.0333 -160.5333 302° West 460 529 36,000  Level Honolulu Center
07:38PM 22.1000 -160.6500 295° West 460 529 36,000  Level Honolulu Center
07:39PM 22.1500 -160.7667 292° West 460 529 36,000  Level Honolulu Center
07:40PM 22.2000 -160.9000 302° West 460 529 36,000  Level Honolulu Center
07:41PM 22.2667 -161.0167 296° West 460 529 36,000  Level Honolulu Center
07:42PM 22.3333 -161.1667 292° West 460 529 36,000  Level Honolulu Center
07:43PM 22.3833 -161.3000 295° West 450 518 36,000  Level Honolulu Center
07:44PM 22.4333 -161.4167 291° West 460 529 36,000  Level Honolulu Center
08:04PM 23.2667 -163.8500 297° West 487 560 36,000  Level Oakland Oceanic (ODAPS)
08:50PM 26.0000 -170.0000 285° West 491 565 36,000  Level Oakland Oceanic (ODAPS)
08:50PM 26.1002 -170.4221 285° West 487 560 36,000  Level FlightAware Transoceanic
08:51PM 26.1364 -170.5758 285° West 487 560 36,000  Level FlightAware Transoceanic
08:52PM 26.1723 -170.7296 285° West 487 560 36,000  Level FlightAware Transoceanic
08:53PM 26.2081 -170.8834 285° West 487 560 36,000  Level FlightAware Transoceanic
08:57PM 26.3344 -171.4325 284° West 491 565 36,000  Level FlightAware Transoceanic
08:58PM 26.3679 -171.5799 284° West 491 565 36,000  Level FlightAware Transoceanic
08:59PM 26.4012 -171.7273 284° West 491 565 36,000  Level FlightAware Transoceanic
09:00PM 26.4344 -171.8749 284° West 491 565 36,000  Level FlightAware Transoceanic
09:01PM 26.4674 -172.0225 284° West 491 565 36,000  Level FlightAware Transoceanic
09:02PM 26.5003 -172.1703 284° West 491 565 36,000  Level FlightAware Transoceanic
09:03PM 26.5331 -172.3181 284° West 491 565 36,000  Level FlightAware Transoceanic
09:04PM 26.5657 -172.4659 284° West 491 565 36,000  Level FlightAware Transoceanic
09:05PM 26.5981 -172.6139 284° West 491 565 36,000  Level FlightAware Transoceanic
09:06PM 26.6304 -172.7620 284° West 491 565 36,000  Level FlightAware Transoceanic
09:07PM 26.6625 -172.9101 284° West 491 565 36,000  Level FlightAware Transoceanic
09:08PM 26.6945 -173.0583 284° West 491 565 36,000  Level FlightAware Transoceanic
09:09PM 26.7263 -173.2067 283° West 491 565 36,000  Level FlightAware Transoceanic
09:10PM 26.7579 -173.3551 283° West 491 565 36,000  Level FlightAware Transoceanic
09:11PM 26.7894 -173.5035 283° West 491 565 36,000  Level FlightAware Transoceanic
09:12PM 26.8208 -173.6521 283° West 491 565 36,000  Level FlightAware Transoceanic
09:13PM 26.8520 -173.8007 283° West 491 565 36,000  Level FlightAware Transoceanic
09:14PM 26.8830 -173.9494 283° West 491 565 36,000  Level FlightAware Transoceanic
09:15PM 26.9139 -174.0982 283° West 491 565 36,000  Level FlightAware Transoceanic
09:16PM 26.9446 -174.2471 283° West 491 565 36,000  Level FlightAware Transoceanic
09:17PM 26.9752 -174.3961 283° West 491 565 36,000  Level FlightAware Transoceanic
09:18PM 27.0056 -174.5451 283° West 491 565 36,000  Level FlightAware Transoceanic
09:19PM 27.0359 -174.6943 283° West 491 565 36,000  Level FlightAware Transoceanic
09:20PM 27.0660 -174.8435 283° West 491 565 36,000  Level FlightAware Transoceanic
09:21PM 27.0959 -174.9928 283° West 491 565 36,000  Level FlightAware Transoceanic
09:22PM 27.1257 -175.1421 283° West 491 565 36,000  Level FlightAware Transoceanic
09:23PM 27.1553 -175.2916 283° West 491 565 36,000  Level FlightAware Transoceanic
09:24PM 27.1848 -175.4411 282° West 491 565 36,000  Level FlightAware Transoceanic
09:25PM 27.2141 -175.5907 282° West 491 565 36,000  Level FlightAware Transoceanic
09:26PM 27.2433 -175.7404 282° West 491 565 36,000  Level FlightAware Transoceanic
09:27PM 27.2723 -175.8901 282° West 491 565 36,000  Level FlightAware Transoceanic
09:28PM 27.3011 -176.0400 282° West 491 565 36,000  Level FlightAware Transoceanic
09:29PM 27.3298 -176.1899 282° West 491 565 36,000  Level FlightAware Transoceanic
09:30PM 27.3583 -176.3399 282° West 491 565 36,000  Level FlightAware Transoceanic
09:31PM 27.3866 -176.4899 282° West 491 565 36,000  Level FlightAware Transoceanic
09:32PM 27.4148 -176.6401 282° West 491 565 36,000  Level FlightAware Transoceanic
09:33PM 27.4429 -176.7903 282° West 491 565 36,000  Level FlightAware Transoceanic
09:34PM 27.4707 -176.9406 282° West 491 565 36,000  Level FlightAware Transoceanic
09:35PM 27.4984 -177.0910 282° West 491 565 36,000  Level FlightAware Transoceanic
09:36PM 27.5260 -177.2414 282° West 491 565 36,000  Level FlightAware Transoceanic
09:37PM 27.5534 -177.3920 282° West 491 565 36,000  Level FlightAware Transoceanic
09:38PM 27.5806 -177.5426 281° West 491 565 36,000  Level FlightAware Transoceanic
09:39PM 27.6077 -177.6932 281° West 491 565 36,000  Level FlightAware Transoceanic
09:40PM 27.6346 -177.8440 281° West 491 565 36,000  Level FlightAware Transoceanic
09:41PM 27.6613 -177.9948 281° West 491 565 36,000  Level FlightAware Transoceanic
09:42PM 27.6879 -178.1457 281° West 491 565 36,000  Level FlightAware Transoceanic
09:43PM 27.7143 -178.2967 281° West 491 565 36,000  Level FlightAware Transoceanic
09:44PM 27.7405 -178.4477 281° West 491 565 36,000  Level FlightAware Transoceanic
09:45PM 27.7666 -178.5988 281° West 491 565 36,000  Level FlightAware Transoceanic
09:46PM 27.7925 -178.7500 281° West 491 565 36,000  Level FlightAware Transoceanic
09:47PM 27.8183 -178.9013 281° West 491 565 36,000  Level FlightAware Transoceanic
09:48PM 27.8438 -179.0526 281° West 491 565 36,000  Level FlightAware Transoceanic
09:49PM 27.8693 -179.2040 281° West 491 565 36,000  Level FlightAware Transoceanic
09:50PM 27.8945 -179.3555 281° West 491 565 36,000  Level FlightAware Transoceanic
09:51PM 27.9196 -179.5070 281° West 491 565 36,000  Level FlightAware Transoceanic
09:52PM 27.9445 -179.6586 281° West 491 565 36,000  Level FlightAware Transoceanic
09:53PM 27.9693 -179.8103 280° West 491 565 36,000  Level FlightAware Transoceanic
09:54PM 27.9939 -179.9621 284° West 491 565 36,000  Level FlightAware Transoceanic
09:55PM 28.0272 179.8869 105° East 491 565 36,000  Level FlightAware Transoceanic
09:56PM 28.0000 -180.0000 285° West 490 564 36,000  Level Oakland Oceanic (ODAPS)
09:56PM 28.0634 179.7360 285° West 491 565 36,000  Level FlightAware Transoceanic
09:57PM 28.0994 179.5851 285° West 491 565 36,000  Level FlightAware Transoceanic
09:58PM 28.1352 179.4340 285° West 491 565 36,000  Level FlightAware Transoceanic
09:59PM 28.1708 179.2828 285° West 491 565 36,000  Level FlightAware Transoceanic
10:03PM 28.3756 178.3984 285° West 490 564 36,000  Level FlightAware Transoceanic
10:04PM 28.4096 178.2488 284° West 490 564 36,000  Level FlightAware Transoceanic
10:05PM 28.4434 178.0992 284° West 490 564 36,000  Level FlightAware Transoceanic
10:06PM 28.4771 177.9494 284° West 490 564 36,000  Level FlightAware Transoceanic
10:07PM 28.5106 177.7996 284° West 490 564 36,000  Level FlightAware Transoceanic
10:08PM 28.5439 177.6496 284° West 490 564 36,000  Level FlightAware Transoceanic
10:09PM 28.5771 177.4996 284° West 490 564 36,000  Level FlightAware Transoceanic
10:10PM 28.6101 177.3495 284° West 490 564 36,000  Level FlightAware Transoceanic
10:11PM 28.6429 177.1992 284° West 490 564 36,000  Level FlightAware Transoceanic
10:12PM 28.6756 177.0489 284° West 490 564 36,000  Level FlightAware Transoceanic
10:13PM 28.7081 176.8985 284° West 490 564 36,000  Level FlightAware Transoceanic
10:14PM 28.7405 176.7480 284° West 490 564 36,000  Level FlightAware Transoceanic
10:15PM 28.7726 176.5974 284° West 490 564 36,000  Level FlightAware Transoceanic
10:16PM 28.8046 176.4467 284° West 490 564 36,000  Level FlightAware Transoceanic
10:17PM 28.8365 176.2959 284° West 490 564 36,000  Level FlightAware Transoceanic
10:18PM 28.8681 176.1451 283° West 490 564 36,000  Level FlightAware Transoceanic
10:19PM 28.8997 175.9941 283° West 490 564 36,000  Level FlightAware Transoceanic
10:20PM 28.9310 175.8430 283° West 490 564 36,000  Level FlightAware Transoceanic
10:21PM 28.9622 175.6919 283° West 490 564 36,000  Level FlightAware Transoceanic
10:22PM 28.9931 175.5406 283° West 490 564 36,000  Level FlightAware Transoceanic
10:23PM 29.0240 175.3893 283° West 490 564 36,000  Level FlightAware Transoceanic
10:24PM 29.0546 175.2379 283° West 490 564 36,000  Level FlightAware Transoceanic
10:25PM 29.0851 175.0864 283° West 490 564 36,000  Level FlightAware Transoceanic
10:26PM 29.1154 174.9348 283° West 490 564 36,000  Level FlightAware Transoceanic
10:27PM 29.1456 174.7831 283° West 490 564 36,000  Level FlightAware Transoceanic
10:28PM 29.1756 174.6313 283° West 490 564 36,000  Level FlightAware Transoceanic
10:29PM 29.2054 174.4795 283° West 490 564 36,000  Level FlightAware Transoceanic
10:30PM 29.2350 174.3275 283° West 490 564 36,000  Level FlightAware Transoceanic
10:31PM 29.2645 174.1755 282° West 490 564 36,000  Level FlightAware Transoceanic
10:32PM 29.2937 174.0233 282° West 490 564 36,000  Level FlightAware Transoceanic
10:33PM 29.3229 173.8711 282° West 490 564 36,000  Level FlightAware Transoceanic
10:34PM 29.3518 173.7188 282° West 490 564 36,000  Level FlightAware Transoceanic
10:35PM 29.3806 173.5664 282° West 490 564 36,000  Level FlightAware Transoceanic
10:36PM 29.4092 173.4140 282° West 490 564 36,000  Level FlightAware Transoceanic
10:37PM 29.4376 173.2614 282° West 490 564 36,000  Level FlightAware Transoceanic
10:38PM 29.4658 173.1088 282° West 490 564 36,000  Level FlightAware Transoceanic
10:39PM 29.4939 172.9560 282° West 490 564 36,000  Level FlightAware Transoceanic
10:40PM 29.5218 172.8032 282° West 490 564 36,000  Level FlightAware Transoceanic
10:41PM 29.5495 172.6503 282° West 490 564 36,000  Level FlightAware Transoceanic
10:42PM 29.5771 172.4973 282° West 490 564 36,000  Level FlightAware Transoceanic
10:43PM 29.6045 172.3443 282° West 490 564 36,000  Level FlightAware Transoceanic
10:44PM 29.6317 172.1911 282° West 490 564 36,000  Level FlightAware Transoceanic
10:45PM 29.6587 172.0379 281° West 490 564 36,000  Level FlightAware Transoceanic
10:46PM 29.6855 171.8846 281° West 490 564 36,000  Level FlightAware Transoceanic
10:47PM 29.7122 171.7312 281° West 490 564 36,000  Level FlightAware Transoceanic
10:48PM 29.7387 171.5777 281° West 490 564 36,000  Level FlightAware Transoceanic
10:49PM 29.7650 171.4241 281° West 490 564 36,000  Level FlightAware Transoceanic
10:50PM 29.7912 171.2705 281° West 490 564 36,000  Level FlightAware Transoceanic
10:51PM 29.8171 171.1168 281° West 490 564 36,000  Level FlightAware Transoceanic
10:52PM 29.8429 170.9630 281° West 490 564 36,000  Level FlightAware Transoceanic
10:54PM 29.8783 170.7501 281° West 490 564 36,000  Level FlightAware Transoceanic
10:55PM 29.9036 170.5961 281° West 490 564 36,000  Level FlightAware Transoceanic
10:56PM 29.9288 170.4421 281° West 490 564 36,000  Level FlightAware Transoceanic
10:57PM 29.9538 170.2879 281° West 490 564 36,000  Level FlightAware Transoceanic
10:58PM 29.9786 170.1337 281° West 490 564 36,000  Level FlightAware Transoceanic
10:59PM 30.0049 169.9796 286° West 490 564 36,000  Level FlightAware Transoceanic
11:00PM 30.0420 169.8267 286° West 490 564 36,000  Level FlightAware Transoceanic
11:01PM 30.0789 169.6737 286° West 490 564 36,000  Level FlightAware Transoceanic
11:02PM 30.1156 169.5206 105° East 490 564 36,000 1,200 Level FlightAware Transoceanic
11:02PM 30.0000 170.0000 286° West 480 552 38,000  Climbing Oakland Oceanic (ODAPS)
11:03PM 30.1521 169.3673 285° West 490 564 36,000 -1,500 Descending FlightAware Transoceanic
11:04PM 30.1884 169.2140 285° West 490 564 36,000  Level FlightAware Transoceanic
11:05PM 30.2246 169.0605 285° West 490 564 36,000  Level FlightAware Transoceanic
11:06PM 30.2605 168.9069 285° West 490 564 36,000 360 Level FlightAware Transoceanic
11:10PM 30.3565 168.4928 285° West 480 552 38,000 360 Climbing FlightAware Transoceanic
11:11PM 30.3908 168.3434 285° West 480 552 38,000  Level FlightAware Transoceanic
11:12PM 30.4249 168.1940 285° West 480 552 38,000  Level FlightAware Transoceanic
11:13PM 30.4587 168.0445 285° West 480 552 38,000  Level FlightAware Transoceanic
11:14PM 30.4925 167.8948 285° West 480 552 38,000  Level FlightAware Transoceanic
11:15PM 30.5261 167.7451 285° West 480 552 38,000  Level FlightAware Transoceanic
11:16PM 30.5594 167.5952 284° West 480 552 38,000  Level FlightAware Transoceanic
11:17PM 30.5927 167.4453 284° West 480 552 38,000  Level FlightAware Transoceanic
11:18PM 30.6257 167.2952 284° West 480 552 38,000  Level FlightAware Transoceanic
11:19PM 30.6586 167.1451 284° West 480 552 38,000  Level FlightAware Transoceanic
11:20PM 30.6913 166.9948 284° West 480 552 38,000  Level FlightAware Transoceanic
11:21PM 30.7238 166.8445 284° West 480 552 38,000  Level FlightAware Transoceanic
11:22PM 30.7562 166.6940 284° West 480 552 38,000  Level FlightAware Transoceanic
11:23PM 30.7884 166.5434 284° West 480 552 38,000  Level FlightAware Transoceanic
11:24PM 30.8204 166.3928 284° West 480 552 38,000  Level FlightAware Transoceanic
11:25PM 30.8522 166.2420 284° West 480 552 38,000  Level FlightAware Transoceanic
11:26PM 30.8839 166.0912 284° West 480 552 38,000  Level FlightAware Transoceanic
11:27PM 30.9153 165.9402 284° West 480 552 38,000  Level FlightAware Transoceanic
11:28PM 30.9467 165.7891 284° West 480 552 38,000  Level FlightAware Transoceanic
11:29PM 30.9778 165.6380 283° West 480 552 38,000  Level FlightAware Transoceanic
11:30PM 31.0088 165.4867 283° West 480 552 38,000  Level FlightAware Transoceanic
11:31PM 31.0395 165.3354 283° West 480 552 38,000  Level FlightAware Transoceanic
11:32PM 31.0701 165.1839 283° West 480 552 38,000  Level FlightAware Transoceanic
11:33PM 31.1006 165.0324 283° West 480 552 38,000  Level FlightAware Transoceanic
11:34PM 31.1308 164.8807 283° West 480 552 38,000  Level FlightAware Transoceanic
11:35PM 31.1609 164.7290 283° West 480 552 38,000  Level FlightAware Transoceanic
11:36PM 31.1908 164.5771 283° West 480 552 38,000  Level FlightAware Transoceanic
11:37PM 31.2205 164.4252 283° West 480 552 38,000  Level FlightAware Transoceanic
11:38PM 31.2500 164.2732 283° West 480 552 38,000  Level FlightAware Transoceanic
11:39PM 31.2794 164.1210 283° West 480 552 38,000  Level FlightAware Transoceanic
11:40PM 31.3086 163.9688 283° West 480 552 38,000  Level FlightAware Transoceanic
11:41PM 31.3376 163.8165 283° West 480 552 38,000  Level FlightAware Transoceanic
11:42PM 31.3664 163.6641 282° West 480 552 38,000  Level FlightAware Transoceanic
11:43PM 31.3950 163.5116 282° West 480 552 38,000  Level FlightAware Transoceanic
11:44PM 31.4235 163.3590 282° West 480 552 38,000  Level FlightAware Transoceanic
11:45PM 31.4517 163.2063 282° West 480 552 38,000  Level FlightAware Transoceanic
11:46PM 31.4799 163.0535 282° West 480 552 38,000  Level FlightAware Transoceanic
11:47PM 31.5078 162.9007 282° West 480 552 38,000  Level FlightAware Transoceanic
11:48PM 31.5355 162.7477 282° West 480 552 38,000  Level FlightAware Transoceanic
11:49PM 31.5630 162.5947 282° West 480 552 38,000  Level FlightAware Transoceanic
11:50PM 31.5904 162.4415 282° West 480 552 38,000  Level FlightAware Transoceanic
11:51PM 31.6176 162.2883 282° West 480 552 38,000  Level FlightAware Transoceanic
11:52PM 31.6446 162.1350 282° West 480 552 38,000  Level FlightAware Transoceanic
11:53PM 31.6714 161.9816 282° West 480 552 38,000  Level FlightAware Transoceanic
11:54PM 31.6980 161.8281 281° West 480 552 38,000  Level FlightAware Transoceanic
11:55PM 31.7245 161.6745 281° West 480 552 38,000  Level FlightAware Transoceanic
11:56PM 31.7508 161.5208 281° West 480 552 38,000  Level FlightAware Transoceanic
11:57PM 31.7769 161.3671 281° West 480 552 38,000  Level FlightAware Transoceanic
11:58PM 31.8027 161.2132 281° West 480 552 38,000  Level FlightAware Transoceanic
11:59PM 31.8285 161.0593 281° West 480 552 38,000  Level FlightAware Transoceanic
12:00AM 31.8540 160.9053 281° West 480 552 38,000  Level FlightAware Transoceanic
12:01AM 31.8793 160.7512 281° West 480 552 38,000  Level FlightAware Transoceanic
12:02AM 31.9045 160.5970 281° West 480 552 38,000  Level FlightAware Transoceanic
12:03AM 31.9295 160.4427 281° West 480 552 38,000  Level FlightAware Transoceanic
12:04AM 31.9542 160.2883 281° West 480 552 38,000  Level FlightAware Transoceanic
12:05AM 31.9788 160.1339 281° West 480 552 38,000  Level FlightAware Transoceanic
12:06AM 32.0049 159.9800 286° West 480 552 38,000  Level FlightAware Transoceanic
12:07AM 32.0416 159.8297 286° West 480 552 38,000  Level FlightAware Transoceanic
12:08AM 32.0781 159.6793 286° West 480 552 38,000  Level FlightAware Transoceanic
12:09AM 32.1144 159.5288 286° West 480 552 38,000  Level FlightAware Transoceanic
12:10AM 32.1505 159.3781 286° West 480 552 38,000  Level FlightAware Transoceanic
12:11AM 32.1865 159.2274 286° West 480 552 38,000  Level FlightAware Transoceanic
12:12AM 32.2223 159.0765 286° West 480 552 38,000  Level FlightAware Transoceanic
12:13AM 32.2579 158.9255 286° West 480 552 38,000  Level FlightAware Transoceanic
12:14AM 32.2933 158.7744 285° West 480 552 38,000  Level FlightAware Transoceanic
12:15AM 32.3285 158.6232 285° West 480 552 38,000  Level FlightAware Transoceanic
12:16AM 32.3636 158.4718 285° West 480 552 38,000  Level FlightAware Transoceanic
12:17AM 32.3985 158.3204 285° West 480 552 38,000  Level FlightAware Transoceanic
12:18AM 32.4332 158.1688 285° West 480 552 38,000  Level FlightAware Transoceanic
12:19AM 32.4677 158.0171 285° West 480 552 38,000  Level FlightAware Transoceanic
12:20AM 32.5020 157.8653 285° West 480 552 38,000  Level FlightAware Transoceanic
12:21AM 32.5362 157.7133 285° West 480 552 38,000  Level FlightAware Transoceanic
12:22AM 32.5702 157.5613 285° West 480 552 38,000  Level FlightAware Transoceanic
12:23AM 32.6040 157.4091 285° West 480 552 38,000  Level FlightAware Transoceanic
12:24AM 32.6376 157.2569 285° West 480 552 38,000  Level FlightAware Transoceanic
12:25AM 32.6710 157.1045 285° West 480 552 38,000  Level FlightAware Transoceanic
12:26AM 32.7042 156.9520 284° West 480 552 38,000  Level FlightAware Transoceanic
12:27AM 32.7373 156.7994 284° West 480 552 38,000  Level FlightAware Transoceanic
12:28AM 32.7701 156.6467 284° West 480 552 38,000  Level FlightAware Transoceanic
12:29AM 32.8028 156.4938 284° West 480 552 38,000  Level FlightAware Transoceanic
12:30AM 32.8353 156.3409 284° West 480 552 38,000  Level FlightAware Transoceanic
12:31AM 32.8676 156.1878 284° West 480 552 38,000  Level FlightAware Transoceanic
12:32AM 32.8997 156.0346 284° West 480 552 38,000  Level FlightAware Transoceanic
12:33AM 32.9317 155.8813 284° West 480 552 38,000  Level FlightAware Transoceanic
12:34AM 32.9634 155.7279 284° West 480 552 38,000  Level FlightAware Transoceanic
12:35AM 32.9950 155.5744 284° West 480 552 38,000  Level FlightAware Transoceanic
12:36AM 33.0263 155.4208 284° West 480 552 38,000  Level FlightAware Transoceanic
12:37AM 33.0575 155.2671 284° West 480 552 38,000  Level FlightAware Transoceanic
12:38AM 33.0885 155.1133 283° West 480 552 38,000  Level FlightAware Transoceanic
12:39AM 33.1193 154.9593 283° West 480 552 38,000  Level FlightAware Transoceanic
12:40AM 33.1499 154.8053 283° West 480 552 38,000  Level FlightAware Transoceanic
12:41AM 33.1804 154.6511 283° West 480 552 38,000  Level FlightAware Transoceanic
12:42AM 33.2106 154.4968 283° West 480 552 38,000  Level FlightAware Transoceanic
12:43AM 33.2407 154.3425 283° West 480 552 38,000  Level FlightAware Transoceanic
12:44AM 33.2705 154.1880 283° West 480 552 38,000  Level FlightAware Transoceanic
12:45AM 33.3002 154.0334 283° West 480 552 38,000  Level FlightAware Transoceanic
12:46AM 33.3297 153.8787 283° West 480 552 38,000  Level FlightAware Transoceanic
12:47AM 33.3589 153.7239 283° West 480 552 38,000  Level FlightAware Transoceanic
12:48AM 33.3880 153.5690 283° West 480 552 38,000  Level FlightAware Transoceanic
12:49AM 33.4169 153.4140 283° West 480 552 38,000  Level FlightAware Transoceanic
12:50AM 33.4456 153.2590 282° West 480 552 38,000  Level FlightAware Transoceanic
12:51AM 33.4741 153.1037 282° West 480 552 38,000  Level FlightAware Transoceanic
12:52AM 33.5024 152.9485 282° West 480 552 38,000  Level FlightAware Transoceanic
12:53AM 33.5306 152.7930 282° West 480 552 38,000  Level FlightAware Transoceanic
12:54AM 33.5585 152.6375 282° West 480 552 38,000  Level FlightAware Transoceanic
12:55AM 33.5862 152.4819 282° West 480 552 38,000  Level FlightAware Transoceanic
12:56AM 33.6138 152.3262 282° West 480 552 38,000  Level FlightAware Transoceanic
12:57AM 33.6411 152.1704 282° West 480 552 38,000  Level FlightAware Transoceanic
12:58AM 33.6683 152.0145 282° West 480 552 38,000  Level FlightAware Transoceanic
12:59AM 33.6952 151.8585 282° West 480 552 38,000  Level FlightAware Transoceanic
01:00AM 33.7220 151.7024 282° West 480 552 38,000  Level FlightAware Transoceanic
01:01AM 33.7485 151.5462 282° West 480 552 38,000  Level FlightAware Transoceanic
01:02AM 33.7749 151.3899 281° West 480 552 38,000  Level FlightAware Transoceanic
01:03AM 33.8011 151.2335 281° West 480 552 38,000  Level FlightAware Transoceanic
01:04AM 33.8270 151.0771 281° West 480 552 38,000  Level FlightAware Transoceanic
01:05AM 33.8528 150.9205 281° West 480 552 38,000  Level FlightAware Transoceanic
01:06AM 33.8784 150.7638 281° West 480 552 38,000  Level FlightAware Transoceanic
01:07AM 33.9038 150.6070 281° West 480 552 38,000  Level FlightAware Transoceanic
01:08AM 33.9289 150.4502 281° West 480 552 38,000  Level FlightAware Transoceanic
01:09AM 33.9539 150.2932 281° West 480 552 38,000  Level FlightAware Transoceanic
01:10AM 33.9787 150.1362 279° West 480 552 38,000  Level FlightAware Transoceanic
01:11AM 34.0010 149.9880 278° West  Level FlightAware Approximate
01:12AM 34.0205 149.8392 278° West  Level FlightAware Approximate
01:13AM 34.0398 149.6906 278° West  Level FlightAware Approximate
01:14AM 34.0589 149.5420 278° West  Level FlightAware Approximate
01:15AM 34.0778 149.3933 278° West  Level FlightAware Approximate
01:16AM 34.0965 149.2445 278° West  Level FlightAware Approximate
01:17AM 34.1150 149.0956 278° West  Level FlightAware Approximate
01:18AM 34.1334 148.9467 278° West  Level FlightAware Approximate
01:19AM 34.1516 148.7977 278° West  Level FlightAware Approximate
01:20AM 34.1696 148.6487 277° West  Level FlightAware Approximate
01:21AM 34.1874 148.4996 277° West  Level FlightAware Approximate
01:22AM 34.2050 148.3504 277° West  Level FlightAware Approximate
01:23AM 34.2225 148.2012 277° West  Level FlightAware Approximate
01:24AM 34.2398 148.0519 277° West  Level FlightAware Approximate
01:25AM 34.2569 147.9025 277° West  Level FlightAware Approximate
01:26AM 34.2738 147.7531 277° West  Level FlightAware Approximate
01:27AM 34.2905 147.6037 277° West  Level FlightAware Approximate
01:28AM 34.3071 147.4541 277° West  Level FlightAware Approximate
01:29AM 34.3234 147.3045 276° West  Level FlightAware Approximate
01:30AM 34.3396 147.1549 276° West  Level FlightAware Approximate
01:31AM 34.3556 147.0052 276° West  Level FlightAware Approximate
01:32AM 34.3715 146.8554 276° West  Level FlightAware Approximate
01:33AM 34.3871 146.7056 276° West  Level FlightAware Approximate
01:34AM 34.4026 146.5557 276° West  Level FlightAware Approximate
01:35AM 34.4179 146.4058 276° West  Level FlightAware Approximate
01:36AM 34.4329 146.2558 276° West  Level FlightAware Approximate
01:37AM 34.4479 146.1058 275° West  Level FlightAware Approximate
01:38AM 34.4443 145.9547 276° West  Level FlightAware Approximate
01:39AM 34.4406 145.8036 276° West  Level FlightAware Approximate
01:40AM 34.4366 145.6526 276° West  Level FlightAware Approximate
01:41AM 34.4325 145.5016 277° West  Level FlightAware Approximate
01:42AM 34.4282 145.3505 277° West  Level FlightAware Approximate
01:43AM 34.4237 145.1995 278° West  Level FlightAware Approximate
01:44AM 34.4190 145.0486 279° West  Level FlightAware Approximate
01:45AM 34.4142 144.8976 279° West  Level FlightAware Approximate
01:46AM 34.4320 144.7481 279° West  Level FlightAware Approximate
01:47AM 34.4262 144.5971 280° West  Level FlightAware Approximate
01:48AM 34.4201 144.4462 282° West  Level FlightAware Approximate
01:49AM 34.4138 144.2953 283° West  Level FlightAware Approximate
01:50AM 34.4074 144.1445 285° West  Level FlightAware Approximate
01:51AM 34.4008 143.9936 288° West  Level FlightAware Approximate
01:52AM 34.3940 143.8428 292° West  Level FlightAware Approximate
01:53AM 34.3870 143.6920 297° West  Level FlightAware Approximate
01:54AM 34.3798 143.5412 304° West  Level FlightAware Approximate
01:55AM 34.3678 143.3909 316° Northwest  Level FlightAware Approximate
01:56AM 34.3555 143.2407 333° Northwest  Level FlightAware Approximate
01:57AM 34.3431 143.0905 355° North  Level FlightAware Approximate
01:58AM 34.6475 143.0597 279° West 438 504 40,000  Level FlightAware
02:00AM 34.6811 142.7982 279° West 441 507 40,000  Level FlightAware
02:01AM 34.6987 142.6594 279° West 441 507 40,000  Level FlightAware
02:02AM 34.7088 142.5794 279° West 442 509 40,000  Level FlightAware
02:02AM 34.7198 142.4913 279° West 443 510 40,000  Level FlightAware
02:03AM 34.7308 142.4022 279° West 444 511 40,000  Level FlightAware
02:04AM 34.7459 142.2792 279° West 445 512 40,000  Level FlightAware
02:04AM 34.7577 142.1831 278° West 447 514 40,000  Level FlightAware
02:05AM 34.7697 142.0836 278° West 448 516 40,000  Level FlightAware
02:06AM 34.7808 141.9922 278° West 448 516 40,000  Level FlightAware
02:06AM 34.7920 141.8972 278° West 448 516 40,000  Level FlightAware
02:07AM 34.8022 141.8111 268° West 446 513 40,000  Level FlightAware
02:07AM 34.7991 141.7169 252° West 444 511 40,000  Level FlightAware
02:08AM 34.7766 141.6351 250° West 447 514 40,000  Level FlightAware
02:09AM 34.7514 141.5505 250° West 444 511 40,000  Level FlightAware
02:09AM 34.7290 141.4764 250° West 445 512 40,000  Level FlightAware
02:10AM 34.7026 141.3889 250° West 447 514 40,000  Level FlightAware
02:10AM 34.6751 141.2976 250° West 449 517 40,000  Level FlightAware
02:11AM 34.6509 141.2170 250° West 450 518 40,000  Level FlightAware
02:12AM 34.6250 141.1314 250° West 451 519 40,000  Level FlightAware
02:12AM 34.6013 141.0527 250° West 451 519 40,000  Level FlightAware
02:13AM 34.5751 140.9669 250° West 452 520 40,000  Level FlightAware
02:13AM 34.5555 140.9025 250° West 452 520 40,000  Level FlightAware
02:14AM 34.5235 140.7980 250° West 453 521 40,000  Level FlightAware
02:14AM 34.4983 140.7153 249° West 457 526 40,000  Level FlightAware
02:15AM 34.4728 140.6327 249° West 457 526 40,000  Level FlightAware
02:16AM 34.4463 140.5476 249° West 458 527 40,000  Level FlightAware
02:16AM 34.4242 140.4762 249° West 459 528 40,000  Level FlightAware
02:17AM 34.3940 140.3790 249° West 460 529 40,000  Level FlightAware
02:17AM 34.3690 140.2987 249° West 460 529 40,000  Level FlightAware
02:18AM 34.3414 140.2108 249° West 461 531 40,000  Level FlightAware
02:19AM 34.3162 140.1300 249° West 462 532 40,000  Level FlightAware
02:19AM 34.2916 140.0521 249° West 463 533 40,000  Level FlightAware
02:20AM 34.2603 139.9530 249° West 464 534 40,000  Level FlightAware
02:20AM 34.2341 139.8698 249° West 466 536 40,000  Level FlightAware
02:21AM 34.2068 139.7836 249° West 466 536 40,000  Level FlightAware
02:21AM 34.1808 139.7018 249° West 466 536 40,000  Level FlightAware
02:22AM 34.1527 139.6141 249° West 467 537 40,000  Level FlightAware
02:23AM 34.1266 139.5299 255° West 470 541 40,000  Level FlightAware
02:23AM 34.1078 139.4441 258° West 469 540 40,000  Level FlightAware
02:24AM 34.0913 139.3468 258° West 471 542 40,000  Level FlightAware
02:24AM 34.0757 139.2548 258° West 469 540 40,000  Level FlightAware
02:25AM 34.0646 139.1898 258° West 469 540 40,000  Level FlightAware
02:26AM 34.0469 139.0865 258° West 469 540 40,000  Level FlightAware
02:26AM 34.0319 138.9978 258° West 469 540 40,000  Level FlightAware
02:27AM 34.0161 138.9064 258° West 469 540 40,000  Level FlightAware
02:27AM 33.9989 138.8057 258° West 468 539 40,000  Level FlightAware
02:28AM 33.9846 138.7237 258° West 468 539 40,000  Level FlightAware
02:28AM 33.9680 138.6293 258° West 466 536 40,000  Level FlightAware
02:29AM 33.9545 138.5520 258° West 465 535 40,000  Level FlightAware
02:29AM 33.9429 138.4858 258° West 464 534 40,000  Level FlightAware
02:30AM 33.9228 138.3725 258° West 465 535 40,000  Level FlightAware
02:31AM 33.9070 138.2842 258° West 465 535 40,000  Level FlightAware
02:31AM 33.8920 138.2000 258° West 466 536 40,000  Level FlightAware
02:32AM 33.8759 138.1100 258° West 468 539 40,000  Level FlightAware
02:33AM 33.8548 137.9923 258° West 469 540 40,000  Level FlightAware
02:33AM 33.8407 137.9149 258° West 470 541 40,000  Level FlightAware
02:34AM 33.8240 137.8238 258° West 471 542 40,000  Level FlightAware
02:34AM 33.8088 137.7397 258° West 472 543 40,000  Level FlightAware
02:35AM 33.7903 137.6387 258° West 472 543 40,000  Level FlightAware
02:36AM 33.7726 137.5428 258° West 474 545 40,000  Level FlightAware
02:36AM 33.7578 137.4619 257° West 474 545 40,000  Level FlightAware
02:37AM 33.7435 137.3853 257° West 474 545 40,000  Level FlightAware
02:37AM 33.7272 137.2975 258° West 475 547 40,000  Level FlightAware
02:38AM 33.7093 137.2006 257° West 477 549 40,000 -420 Level FlightAware
02:39AM 33.6871 137.0819 257° West 477 549 39,500 -1,080 Descending FlightAware
02:39AM 33.6735 137.0101 257° West 475 547 38,800 -1,860 Descending FlightAware
02:40AM 33.6533 136.9023 257° West 465 535 37,200 -2,340 Descending FlightAware
02:40AM 33.6349 136.8062 257° West 459 528 35,700 -2,520 Descending FlightAware
02:41AM 33.6226 136.7415 264° West 458 527 34,500 -2,220 Descending FlightAware
02:42AM 33.6079 136.5853 272° West 459 528 32,200 -1,200 Descending FlightAware
02:43AM 33.6118 136.4760 273° West 451 519 32,000 -120 Descending FlightAware
02:44AM 33.6175 136.3186 273° West 457 526 32,000  Level FlightAware
02:44AM 33.6203 136.2418 272° West 457 526 32,000  Level FlightAware
02:45AM 33.6238 136.1445 272° West 458 527 32,000 -120 Level FlightAware
02:45AM 33.6269 136.0581 272° West 446 513 31,900 -960 Descending FlightAware
02:46AM 33.6286 135.9839 272° West 433 498 31,000 -2,160 Descending FlightAware
02:47AM 33.6311 135.8858 272° West 425 489 29,400 -2,400 Descending FlightAware
02:47AM 33.6329 135.8142 272° West 418 481 28,200 -2,340 Descending FlightAware
02:48AM 33.6353 135.7245 272° West 409 471 26,700 -2,340 Descending FlightAware
02:48AM 33.6372 135.6468 272° West 401 461 25,300 -2,340 Descending FlightAware
02:49AM 33.6388 135.5795 272° West 394 453 24,200 -2,400 Descending FlightAware
02:49AM 33.6408 135.4937 272° West 387 445 22,500 -2,400 Descending FlightAware
02:50AM 33.6426 135.4288 272° West 382 440 21,400 -2,340 Descending FlightAware
02:51AM 33.6443 135.3535 271° West 377 434 20,000 -1,920 Descending FlightAware
02:51AM 33.6453 135.3017 271° West 374 430 19,000 -2,400 Descending FlightAware
02:52AM 33.6472 135.2092 278° West 370 426 17,200 -2,880 Descending FlightAware
02:52AM 33.6544 135.1484 306° West 364 419 16,200 -1,740 Descending FlightAware
02:53AM 33.6832 135.1011 325° Northwest 357 411 15,500 -1,560 Descending FlightAware
02:53AM 33.7174 135.0722 332° Northwest 360 414 14,800 -1,560 Descending FlightAware
02:54AM 33.7613 135.0436 332° Northwest 353 406 14,100 -1,740 Descending FlightAware
02:54AM 33.8190 135.0068 332° Northwest 347 399 12,800 -1,920 Descending FlightAware
02:55AM 33.8614 134.9794 331° Northwest 342 394 11,900 -1,800 Descending FlightAware
02:55AM 33.9095 134.9476 332° Northwest 339 390 10,900 -1,380 Descending FlightAware
02:56AM 33.9552 134.9180 331° Northwest 323 372 10,300 -1,020 Descending FlightAware
02:56AM 33.9953 134.8915 332° Northwest 307 353 9,800 -840 Descending FlightAware
02:57AM 34.0204 134.8751 332° Northwest 301 346 9,600 -780 Descending FlightAware
02:57AM 34.0430 134.8604 332° Northwest 295 339 9,300 -900 Descending FlightAware
02:57AM 34.0686 134.8437 332° Northwest 292 336 9,000 -960 Descending FlightAware
02:58AM 34.0988 134.8240 332° Northwest 280 322 8,600 -960 Descending FlightAware
02:58AM 34.1221 134.8089 331° Northwest 275 316 8,300 -900 Descending FlightAware
02:59AM 34.1415 134.7960 332° Northwest 274 315 8,000 -1,080 Descending FlightAware
02:59AM 34.1733 134.7753 332° Northwest 277 319 7,500 -1,260 Descending FlightAware
02:59AM 34.1916 134.7633 332° Northwest 278 320 7,200 -540 Descending FlightAware
03:00AM 34.2133 134.7493 336° Northwest 275 316 7,200  Level FlightAware
03:00AM 34.2431 134.7330 352° North 282 325 7,200  Level FlightAware
03:00AM 34.2490 134.7320 North 275 316 7,200  Level FlightAware
03:00AM 34.2627 134.7331 22° Northeast 280 322 7,200  Level FlightAware
03:00AM 34.2754 134.7392 34° Northeast 278 320 7,200  Level FlightAware
03:00AM 34.2801 134.7430 43° Northeast 275 316 7,200  Level FlightAware
03:01AM 34.2889 134.7531 50° Northeast 274 315 7,200 -180 Level FlightAware
03:01AM 34.3091 134.7821 51° Northeast 264 304 7,100 -600 Descending FlightAware
03:01AM 34.3198 134.7983 51° Northeast 266 306 6,800 -1,260 Descending FlightAware
03:02AM 34.3432 134.8331 51° Northeast 260 299 6,200 -1,320 Descending FlightAware
03:02AM 34.3617 134.8603 50° Northeast 260 299 5,600 -1,380 Descending FlightAware
03:02AM 34.3739 134.8779 50° Northeast 259 298 5,300 -1,200 Descending FlightAware
03:03AM 34.3949 134.9084 50° Northeast 258 297 4,800 -1,200 Descending FlightAware
03:03AM 34.4115 134.9323 50° Northeast 257 296 4,400 -1,080 Descending FlightAware
03:04AM 34.4269 134.9546 50° Northeast 260 299 4,100 -300 Descending FlightAware
03:04AM 34.4443 134.9801 50° Northeast 249 287 4,200 120 Climbing FlightAware
03:04AM 34.4552 134.9956 50° Northeast 249 287 4,200  Level FlightAware
03:05AM 34.4701 135.0172 50° Northeast 250 288 4,200  Level FlightAware
03:05AM 34.4892 135.0452 50° Northeast 243 280 4,200  Level FlightAware
03:05AM 34.5032 135.0658 50° Northeast 240 276 4,200  Level FlightAware
03:06AM 34.5233 135.0952 50° Northeast 245 282 4,200  Level FlightAware
03:06AM 34.5331 135.1096 50° Northeast 240 276 4,200  Level FlightAware
03:06AM 34.5434 135.1247 50° Northeast 227 261 4,200  Level FlightAware
03:07AM 34.5570 135.1446 51° Northeast 203 234 4,200  Level FlightAware
03:07AM 34.5710 135.1654 50° Northeast 194 223 4,200  Level FlightAware
03:07AM 34.5823 135.1818 51° Northeast 180 207 4,200  Level FlightAware
03:08AM 34.5930 135.1976 54° Northeast 178 205 4,200  Level FlightAware
03:08AM 34.5977 135.2056 68° East 176 203 4,200  Level FlightAware
03:08AM 34.5996 135.2113 83° East 176 203 4,200 -420 Level FlightAware
03:08AM 34.6006 135.2210 91° East 170 196 4,100 -720 Descending FlightAware
03:08AM 34.6004 135.2340 91° East 168 193 3,900 -1,080 Descending FlightAware
03:09AM 34.5999 135.2593 92° East 170 196 3,400 -1,200 Descending FlightAware
03:09AM 34.5994 135.2774 92° East 170 196 3,000 -900 Descending FlightAware
03:09AM 34.5989 135.2972 92° East 173 199 2,800 -300 Descending FlightAware
03:10AM 34.5983 135.3201 91° East 175 201 2,800  Level FlightAware
03:10AM 34.5980 135.3406 92° East 174 200 2,800  Level FlightAware
03:10AM 34.5977 135.3526 106° East 171 197 2,800 -720 Level FlightAware
03:11AM 34.5947 135.3651 130° Southeast 166 191 2,500 -1,500 Descending FlightAware
03:11AM 34.5905 135.3711 144° Southeast 157 181 2,300 -900 Descending FlightAware
03:11AM 34.5873 135.3739 169° South 157 181 2,300 -480 Level FlightAware
03:11AM 34.5618 135.3801 178° South 155 178 2,000 -480 Descending FlightAware
03:12AM 34.5514 135.3806 197° South 152 175 1,900 -480 Descending FlightAware
03:12AM 34.5440 135.3779 201° Southwest 151 174 1,800 -720 Descending FlightAware
03:12AM 34.5345 135.3735 202° Southwest 150 173 1,600 -540 Descending FlightAware
03:12AM 34.5222 135.3676 203° Southwest 149 171 1,500 -300 Descending FlightAware
03:13AM 34.5059 135.3594 203° Southwest 138 159 1,400 -300 Descending FlightAware
03:13AM 34.4946 135.3537 204° Southwest 140 161 1,300  Descending FlightAware
03:13AM 34.4892 135.3508 222° Southwest 138 159 1,400  Climbing FlightAware
03:13AM 34.4854 135.3466 231° Southwest 133 153 1,300 -240 Descending FlightAware
03:14AM 34.4763 135.3328 231° Southwest 132 152 1,300 120 Level FlightAware
03:14AM 34.4691 135.3221 237° Southwest 132 152 1,400 300 Climbing FlightAware
03:22AM 33.9531 134.3705 57° Northeast  Level Estimated
03:23AM 34.4167 135.2333 57° Northeast  Level FlightAware Approximate